Terminal Aerodrome Forecast
Issued by NWS Shreveport, LA

Home | Current Version | Previous Version | Text Only | Print | Product List | Glossary On
Versions: 1 2 3 4 5 6 7 8 9 10 11 12 13 14
000
FTUS44 KSHV 282323
TAFTXK
TAF
KTXK 282323Z 2900/2924 11008KT P6SM SCT060
      TEMPO 2909/2912 BKN015
     FM291200 15010KT P6SM OVC015
      TEMPO 2914/2917 15015G25KT BKN030
     FM291700 17015G25KT P6SM SCT040 BKN250
     FM292100 18014G24KT P6SM VCTS BKN040CB=

USA.gov is the U.S. government's official web portal to all federal, state and local government web resources and services.